Wetterdaten: Woche 08.05.17 - 14.05.17 (KW19)
Datum Zeit Temp. A. Pool Temp. Feuchte A. Luftdruck Regen Wind Richtung Sonnenschein ET UV Solar Taupunkt Windchill Windben Empfang
08.05.2017 00:00 10,8 C 15,6 C 95 % 1011,6 hPa 0,2 l/m 13,4 km/h (3 Bft) SW 0,00 h 0,000 mm 0,0 UV-I 0 W/m 10,0 C 6,9 C 21,0 km/h (4 Bft) 91,28 %
08.05.2017 01:00 10,7 C 15,6 C 95 % 1011,4 hPa 0,2 l/m 13,1 km/h (3 Bft) SW 0,00 h 0,000 mm 0,0 UV-I 0 W/m 10,0 C 6,9 C 20,6 km/h (4 Bft) 96,91 %
08.05.2017 02:00 10,6 C 15,6 C 95 % 1011,1 hPa 2,0 l/m 14,2 km/h (3 Bft) SW 0,00 h 0,000 mm 0,0 UV-I 0 W/m 9,8 C 6,2 C 21,8 km/h (4 Bft) 95,83 %
08.05.2017 03:00 10,4 C 15,6 C 95 % 1011,0 hPa 1,0 l/m 9,9 km/h (2 Bft) SW 0,00 h 0,000 mm 0,0 UV-I 0 W/m 9,7 C 8,1 C 15,8 km/h (3 Bft) 96,77 %
08.05.2017 04:00 10,4 C 15,4 C 95 % 1010,7 hPa 0,2 l/m 12,1 km/h (2 Bft) SW 0,00 h 0,000 mm 0,0 UV-I 0 W/m 9,6 C 7,0 C 18,8 km/h (3 Bft) 95,84 %
08.05.2017 05:00 10,2 C 15,0 C 95 % 1010,6 hPa 0,0 l/m 11,8 km/h (2 Bft) W-SW 0,00 h 0,000 mm 0,0 UV-I 7 W/m 9,5 C 6,9 C 18,2 km/h (3 Bft) 97,66 %
08.05.2017 06:00 10,2 C 15,0 C 96 % 1010,9 hPa 0,0 l/m 10,0 km/h (2 Bft) SW 0,00 h 0,000 mm 0,0 UV-I 19 W/m 9,6 C 7,9 C 15,9 km/h (3 Bft) 96,11 %
08.05.2017 07:00 10,4 C 15,0 C 95 % 1011,2 hPa 0,0 l/m 10,8 km/h (2 Bft) SW 0,00 h 0,025 mm 0,0 UV-I 43 W/m 9,6 C 7,7 C 17,0 km/h (3 Bft) 95,98 %
08.05.2017 08:00 10,6 C 15,0 C 94 % 1011,4 hPa 0,0 l/m 11,4 km/h (2 Bft) W-SW 0,00 h 0,026 mm 0,0 UV-I 60 W/m 9,7 C 7,6 C 17,8 km/h (3 Bft) 95,71 %
08.05.2017 09:00 11,2 C 15,0 C 94 % 1011,5 hPa 0,0 l/m 10,9 km/h (2 Bft) W-SW 0,00 h 0,025 mm 0,8 UV-I 200 W/m 10,3 C 8,5 C 17,3 km/h (3 Bft) 98,50 %
08.05.2017 10:00 12,1 C 15,0 C 92 % 1011,7 hPa 0,0 l/m 10,9 km/h (2 Bft) SW 0,03 h 0,102 mm 1,3 UV-I 259 W/m 10,9 C 9,6 C 17,8 km/h (3 Bft) 96,66 %
08.05.2017 11:00 13,1 C 15,5 C 87 % 1011,7 hPa 0,0 l/m 17,1 km/h (3 Bft) SW 0,67 h 0,127 mm 2,8 UV-I 514 W/m 11,0 C 8,3 C 25,9 km/h (4 Bft) 96,06 %
08.05.2017 12:00 13,7 C 15,6 C 84 % 1011,5 hPa 0,0 l/m 17,8 km/h (3 Bft) SW 0,70 h 0,279 mm 3,2 UV-I 627 W/m 11,0 C 8,7 C 27,5 km/h (4 Bft) 96,21 %
08.05.2017 13:00 13,7 C 15,6 C 82 % 1011,4 hPa 0,0 l/m 19,5 km/h (3 Bft) W-SW 0,40 h 0,356 mm 2,1 UV-I 388 W/m 10,6 C 8,3 C 28,9 km/h (5 Bft) 98,62 %
08.05.2017 14:00 12,6 C 15,6 C 86 % 1011,4 hPa 0,0 l/m 16,6 km/h (3 Bft) SW 0,00 h 0,228 mm 0,8 UV-I 145 W/m 10,3 C 7,8 C 24,6 km/h (4 Bft) 97,63 %
08.05.2017 15:00 12,3 C 15,6 C 88 % 1011,3 hPa 0,2 l/m 8,0 km/h (2 Bft) W-SW 0,00 h 0,102 mm 0,6 UV-I 72 W/m 10,3 C 10,5 C 12,8 km/h (3 Bft) 96,76 %
08.05.2017 16:00 10,7 C 15,6 C 94 % 1011,7 hPa 7,0 l/m 4,6 km/h (1 Bft) W-SW 0,00 h 0,051 mm 0,0 UV-I 31 W/m 9,8 C 10,6 C 9,2 km/h (2 Bft) 95,28 %
08.05.2017 17:00 10,0 C 15,6 C 94 % 1011,6 hPa 0,6 l/m 8,3 km/h (2 Bft) W-SW 0,00 h 0,025 mm 0,2 UV-I 92 W/m 9,2 C 8,7 C 13,3 km/h (3 Bft) 97,17 %
08.05.2017 18:00 9,9 C 15,6 C 94 % 1011,9 hPa 0,6 l/m 8,2 km/h (2 Bft) S-SW 0,00 h 0,051 mm 0,0 UV-I 26 W/m 9,0 C 8,6 C 12,8 km/h (3 Bft) 95,68 %
08.05.2017 19:00 9,9 C 15,6 C 95 % 1011,9 hPa 2,4 l/m 11,1 km/h (2 Bft) W-SW 0,00 h 0,025 mm 0,0 UV-I 11 W/m 9,2 C 7,0 C 18,9 km/h (3 Bft) 95,93 %
08.05.2017 20:00 9,7 C 15,6 C 96 % 1012,8 hPa 3,4 l/m 9,3 km/h (2 Bft) W-SW 0,00 h 0,000 mm 0,0 UV-I 6 W/m 9,1 C 7,8 C 15,4 km/h (3 Bft) 96,47 %
08.05.2017 21:00 9,7 C 15,2 C 96 % 1013,4 hPa 3,8 l/m 14,1 km/h (3 Bft) SW 0,00 h 0,000 mm 0,0 UV-I 0 W/m 9,1 C 5,3 C 21,9 km/h (4 Bft) 98,23 %
08.05.2017 22:00 9,3 C 15,0 C 96 % 1013,6 hPa 3,6 l/m 15,1 km/h (3 Bft) W-SW 0,00 h 0,000 mm 0,0 UV-I 0 W/m 8,7 C 4,2 C 23,5 km/h (4 Bft) 97,72 %
08.05.2017 23:00 9,0 C 15,0 C 96 % 1014,0 hPa 3,2 l/m 13,7 km/h (3 Bft) W-SW 0,00 h 0,000 mm 0,0 UV-I 0 W/m 8,4 C 4,6 C 21,3 km/h (4 Bft) 96,25 %
09.05.2017 00:00 8,6 C 15,0 C 96 % 1014,3 hPa 2,8 l/m 10,5 km/h (2 Bft) W-SW 0,00 h 0,000 mm 0,0 UV-I 0 W/m 8,0 C 5,8 C 17,1 km/h (3 Bft) 97,44 %
09.05.2017 01:00 8,2 C 14,9 C 96 % 1014,3 hPa 2,2 l/m 9,1 km/h (2 Bft) W-SW 0,00 h 0,000 mm 0,0 UV-I 0 W/m 7,6 C 6,3 C 15,2 km/h (3 Bft) 97,70 %
09.05.2017 02:00 8,1 C 14,4 C 96 % 1013,9 hPa 3,0 l/m 7,7 km/h (2 Bft) W-SW 0,00 h 0,000 mm 0,0 UV-I 0 W/m 7,5 C 6,7 C 13,1 km/h (3 Bft) 96,60 %
09.05.2017 03:00 7,9 C 14,4 C 97 % 1013,9 hPa 4,0 l/m 6,6 km/h (2 Bft) W-SW 0,00 h 0,000 mm 0,0 UV-I 0 W/m 7,4 C 7,1 C 12,0 km/h (2 Bft) 97,00 %
09.05.2017 04:00 7,6 C 14,4 C 97 % 1013,9 hPa 0,4 l/m 10,9 km/h (2 Bft) W-SW 0,00 h 0,000 mm 0,0 UV-I 0 W/m 7,1 C 4,5 C 16,6 km/h (3 Bft) 97,79 %
09.05.2017 05:00 7,4 C 14,4 C 96 % 1014,0 hPa 0,8 l/m 12,0 km/h (2 Bft) W-SW 0,00 h 0,000 mm 0,0 UV-I 5 W/m 6,8 C 3,6 C 19,1 km/h (3 Bft) 97,96 %
09.05.2017 06:00 7,3 C 14,4 C 96 % 1014,2 hPa 0,2 l/m 10,8 km/h (2 Bft) W-SW 0,00 h 0,000 mm 0,0 UV-I 16 W/m 6,7 C 4,1 C 17,0 km/h (3 Bft) 94,02 %
09.05.2017 07:00 6,9 C 14,4 C 95 % 1014,4 hPa 0,6 l/m 7,0 km/h (2 Bft) W-SW 0,00 h 0,000 mm 0,0 UV-I 25 W/m 6,2 C 5,5 C 11,8 km/h (2 Bft) 95,80 %
09.05.2017 08:00 5,9 C 14,4 C 94 % 1015,0 hPa 2,4 l/m 1,0 km/h (0 Bft) NW 0,00 h 0,025 mm 0,0 UV-I 69 W/m 5,1 C 5,9 C 3,7 km/h (1 Bft) 96,42 %
09.05.2017 09:00 6,2 C 14,4 C 93 % 1015,3 hPa 0,4 l/m 0,5 km/h (0 Bft) NW 0,00 h 0,026 mm 0,6 UV-I 139 W/m 5,2 C 6,2 C 2,1 km/h (1 Bft) 97,74 %
09.05.2017 10:00 7,0 C 14,4 C 87 % 1015,6 hPa 0,0 l/m 0,6 km/h (0 Bft) NW 0,00 h 0,051 mm 1,0 UV-I 196 W/m 5,0 C 7,0 C 2,7 km/h (1 Bft) 94,97 %
09.05.2017 11:00 6,8 C 14,3 C 90 % 1015,9 hPa 0,0 l/m 4,3 km/h (1 Bft) SO 0,00 h 0,076 mm 1,0 UV-I 171 W/m 5,3 C 6,4 C 8,2 km/h (2 Bft) 96,94 %
09.05.2017 12:00 6,6 C 14,4 C 91 % 1016,1 hPa 0,0 l/m 3,8 km/h (1 Bft) S 0,00 h 0,076 mm 1,1 UV-I 188 W/m 5,2 C 6,5 C 7,5 km/h (2 Bft) 97,22 %
09.05.2017 13:00 7,1 C 14,4 C 90 % 1015,8 hPa 0,0 l/m 10,1 km/h (2 Bft) O-SO 0,40 h 0,076 mm 2,5 UV-I 435 W/m 5,5 C 4,4 C 16,3 km/h (3 Bft) 99,05 %
09.05.2017 14:00 7,5 C 14,4 C 87 % 1015,5 hPa 0,0 l/m 7,4 km/h (2 Bft) S-SO 0,27 h 0,178 mm 1,5 UV-I 304 W/m 5,5 C 6,6 C 13,4 km/h (3 Bft) 95,23 %
09.05.2017 15:00 6,2 C 14,4 C 87 % 1015,7 hPa 1,4 l/m 3,8 km/h (1 Bft) O 0,17 h 0,127 mm 1,3 UV-I 258 W/m 4,2 C 6,1 C 7,4 km/h (2 Bft) 98,18 %
09.05.2017 16:00 7,1 C 14,4 C 85 % 1015,4 hPa 0,0 l/m 3,2 km/h (1 Bft) W 0,00 h 0,102 mm 1,0 UV-I 235 W/m 4,8 C 7,1 C 6,2 km/h (2 Bft) 97,17 %
09.05.2017 17:00 7,6 C 14,4 C 87 % 1015,2 hPa 0,0 l/m 3,6 km/h (1 Bft) S 0,00 h 0,101 mm 0,8 UV-I 177 W/m 5,6 C 7,6 C 7,3 km/h (2 Bft) 97,41 %
09.05.2017 18:00 7,7 C 14,4 C 88 % 1015,0 hPa 0,0 l/m 2,4 km/h (1 Bft) S-SO 0,00 h 0,076 mm 0,0 UV-I 111 W/m 5,8 C 7,7 C 5,6 km/h (1 Bft) 95,11 %
09.05.2017 19:00 7,5 C 14,4 C 85 % 1014,9 hPa 0,0 l/m 0,8 km/h (0 Bft) W-SW 0,00 h 0,051 mm 0,0 UV-I 28 W/m 5,2 C 7,5 C 1,8 km/h (1 Bft) 96,41 %
09.05.2017 20:00 6,5 C 14,4 C 92 % 1015,0 hPa 0,0 l/m 1,5 km/h (1 Bft) S-SW 0,03 h 0,026 mm 0,0 UV-I 9 W/m 5,4 C 6,5 C 2,4 km/h (1 Bft) 97,11 %
09.05.2017 21:00 5,8 C 13,9 C 94 % 1015,3 hPa 0,0 l/m 4,6 km/h (1 Bft) S-SW 0,00 h 0,000 mm 0,0 UV-I 0 W/m 5,0 C 5,3 C 7,0 km/h (2 Bft) 96,58 %
09.05.2017 22:00 5,7 C 13,9 C 91 % 1015,4 hPa 0,0 l/m 6,8 km/h (2 Bft) O-SO 0,00 h 0,000 mm 0,0 UV-I 0 W/m 4,4 C 5,1 C 10,2 km/h (2 Bft) 97,22 %
09.05.2017 23:00 5,5 C 13,9 C 91 % 1015,3 hPa 0,0 l/m 4,0 km/h (1 Bft) O 0,00 h 0,000 mm 0,0 UV-I 0 W/m 4,1 C 5,5 C 6,3 km/h (2 Bft) 97,19 %
10.05.2017 00:00 5,2 C 13,9 C 92 % 1015,0 hPa 0,0 l/m 4,3 km/h (1 Bft) O 0,00 h 0,000 mm 0,0 UV-I 0 W/m 4,0 C 5,2 C 6,5 km/h (2 Bft) 97,67 %
10.05.2017 01:00 4,8 C 13,9 C 94 % 1014,7 hPa 0,0 l/m 3,6 km/h (1 Bft) O-NO 0,00 h 0,000 mm 0,0 UV-I 0 W/m 4,0 C 4,8 C 5,4 km/h (1 Bft) 94,66 %
10.05.2017 02:00 4,6 C 13,9 C 95 % 1014,2 hPa 0,0 l/m 2,8 km/h (1 Bft) O-NO 0,00 h 0,000 mm 0,0 UV-I 0 W/m 3,9 C 4,6 C 4,3 km/h (1 Bft) 98,15 %
10.05.2017 03:00 4,0 C 13,4 C 96 % 1013,5 hPa 0,0 l/m 3,0 km/h (1 Bft) O-NO 0,00 h 0,000 mm 0,0 UV-I 0 W/m 3,4 C 4,0 C 4,5 km/h (1 Bft) 97,01 %
10.05.2017 04:00 3,0 C 13,3 C 96 % 1013,0 hPa 0,0 l/m 1,4 km/h (1 Bft) O-NO 0,00 h 0,000 mm 0,0 UV-I 0 W/m 2,5 C 3,0 C 2,5 km/h (1 Bft) 96,54 %
10.05.2017 05:00 2,6 C 13,3 C 97 % 1012,7 hPa 0,0 l/m 0,4 km/h (0 Bft) O-NO 0,13 h 0,000 mm 0,0 UV-I 13 W/m 2,1 C 2,6 C 1,1 km/h (1 Bft) 96,97 %
10.05.2017 06:00 2,4 C 13,3 C 97 % 1012,7 hPa 0,0 l/m 1,1 km/h (1 Bft) O 0,00 h 0,000 mm 0,0 UV-I 61 W/m 2,0 C 2,4 C 2,3 km/h (1 Bft) 97,52 %
10.05.2017 07:00 3,1 C 13,3 C 98 % 1012,8 hPa 0,0 l/m 4,1 km/h (1 Bft) NO 0,00 h 0,025 mm 0,0 UV-I 102 W/m 2,8 C 3,1 C 6,6 km/h (2 Bft) 94,03 %
10.05.2017 08:00 3,8 C 13,3 C 97 % 1012,6 hPa 0,0 l/m 3,7 km/h (1 Bft) O 0,00 h 0,051 mm 0,5 UV-I 176 W/m 3,4 C 3,8 C 6,8 km/h (2 Bft) 98,55 %
10.05.2017 09:00 5,0 C 13,3 C 95 % 1012,6 hPa 0,0 l/m 2,8 km/h (1 Bft) O-NO 0,37 h 0,076 mm 1,3 UV-I 326 W/m 4,2 C 4,9 C 5,9 km/h (2 Bft) 97,02 %
10.05.2017 10:00 7,4 C 13,3 C 88 % 1012,1 hPa 0,0 l/m 3,7 km/h (1 Bft) SO 0,83 h 0,127 mm 2,9 UV-I 634 W/m 5,6 C 7,4 C 7,5 km/h (2 Bft) 96,83 %
10.05.2017 11:00 9,8 C 13,9 C 79 % 1011,6 hPa 0,0 l/m 3,7 km/h (1 Bft) NO 0,97 h 0,280 mm 4,1 UV-I 854 W/m 6,3 C 9,7 C 7,7 km/h (2 Bft) 93,37 %
10.05.2017 12:00 11,4 C 14,0 C 71 % 1011,1 hPa 0,0 l/m 3,8 km/h (1 Bft) O-NO 1,00 h 0,381 mm 4,8 UV-I 902 W/m 6,3 C 11,3 C 7,5 km/h (2 Bft) 95,62 %
10.05.2017 13:00 12,7 C 14,4 C 64 % 1010,5 hPa 0,0 l/m 3,9 km/h (1 Bft) W-NW 1,00 h 0,432 mm 5,0 UV-I 896 W/m 6,0 C 12,6 C 9,0 km/h (2 Bft) 96,58 %
10.05.2017 14:00 13,8 C 14,8 C 60 % 1010,0 hPa 0,0 l/m 4,2 km/h (1 Bft) NO 1,00 h 0,457 mm 4,5 UV-I 842 W/m 6,1 C 13,6 C 8,5 km/h (2 Bft) 97,60 %
10.05.2017 15:00 14,8 C 15,0 C 55 % 1009,2 hPa 0,0 l/m 3,1 km/h (1 Bft) N-NO 1,00 h 0,432 mm 3,5 UV-I 730 W/m 5,9 C 14,7 C 7,0 km/h (2 Bft) 96,91 %
10.05.2017 16:00 15,3 C 15,0 C 55 % 1008,5 hPa 0,0 l/m 4,3 km/h (1 Bft) O-NO 1,00 h 0,406 mm 2,3 UV-I 594 W/m 6,3 C 15,1 C 7,5 km/h (2 Bft) 97,64 %
10.05.2017 17:00 15,7 C 15,1 C 55 % 1007,7 hPa 0,0 l/m 5,8 km/h (2 Bft) O-NO 1,00 h 0,330 mm 1,2 UV-I 425 W/m 6,7 C 15,4 C 10,2 km/h (2 Bft) 95,59 %
10.05.2017 18:00 15,4 C 16,0 C 55 % 1007,1 hPa 0,0 l/m 6,1 km/h (2 Bft) O-NO 1,00 h 0,254 mm 0,6 UV-I 247 W/m 6,4 C 15,1 C 9,9 km/h (2 Bft) 98,40 %
10.05.2017 19:00 14,5 C 15,6 C 60 % 1006,6 hPa 0,0 l/m 5,9 km/h (2 Bft) O-NO 1,00 h 0,178 mm 0,0 UV-I 95 W/m 6,7 C 14,3 C 9,2 km/h (2 Bft) 96,25 %
10.05.2017 20:00 12,0 C 15,6 C 71 % 1006,5 hPa 0,0 l/m 1,4 km/h (1 Bft) O-NO 0,33 h 0,076 mm 0,0 UV-I 13 W/m 6,8 C 12,0 C 2,8 km/h (1 Bft) 96,20 %
10.05.2017 21:00 9,3 C 15,6 C 84 % 1006,4 hPa 0,0 l/m 1,1 km/h (1 Bft) O-NO 0,00 h 0,026 mm 0,0 UV-I 0 W/m 6,8 C 9,3 C 2,0 km/h (1 Bft) 95,25 %
10.05.2017 22:00 8,2 C 15,6 C 87 % 1006,3 hPa 0,0 l/m 0,7 km/h (0 Bft) O-NO 0,00 h 0,000 mm 0,0 UV-I 0 W/m 6,2 C 8,2 C 1,5 km/h (1 Bft) 98,10 %
10.05.2017 23:00 7,5 C 15,6 C 90 % 1006,3 hPa 0,0 l/m 1,1 km/h (0 Bft) SO 0,00 h 0,000 mm 0,0 UV-I 0 W/m 5,9 C 7,5 C 1,9 km/h (1 Bft) 97,57 %
11.05.2017 00:00 6,6 C 15,5 C 92 % 1006,5 hPa 0,0 l/m 0,2 km/h (0 Bft) SO 0,00 h 0,000 mm 0,0 UV-I 0 W/m 5,4 C 6,6 C 0,9 km/h (0 Bft) 95,83 %
11.05.2017 01:00 6,0 C 15,0 C 93 % 1006,5 hPa 0,0 l/m 1,3 km/h (1 Bft) SO 0,00 h 0,000 mm 0,0 UV-I 0 W/m 4,9 C 6,0 C 2,5 km/h (1 Bft) 97,84 %
11.05.2017 02:00 5,4 C 15,0 C 94 % 1006,3 hPa 0,0 l/m 0,4 km/h (0 Bft) SO 0,00 h 0,000 mm 0,0 UV-I 0 W/m 4,5 C 5,4 C 1,1 km/h (0 Bft) 97,33 %
11.05.2017 03:00 4,8 C 15,0 C 95 % 1006,1 hPa 0,0 l/m 0,8 km/h (0 Bft) SO 0,00 h 0,000 mm 0,0 UV-I 0 W/m 4,1 C 4,8 C 1,8 km/h (1 Bft) 96,53 %
11.05.2017 04:00 4,5 C 15,0 C 95 % 1005,9 hPa 0,0 l/m 0,9 km/h (0 Bft) SO 0,00 h 0,000 mm 0,0 UV-I 0 W/m 3,9 C 4,5 C 2,0 km/h (1 Bft) 96,94 %
11.05.2017 05:00 4,2 C 14,6 C 96 % 1005,8 hPa 0,0 l/m 0,1 km/h (0 Bft) SO 0,30 h 0,000 mm 0,0 UV-I 19 W/m 3,6 C 4,2 C 0,3 km/h (0 Bft) 98,51 %
11.05.2017 06:00 4,6 C 14,4 C 96 % 1006,1 hPa 0,0 l/m 0,1 km/h (0 Bft) SO 0,80 h 0,000 mm 0,0 UV-I 97 W/m 4,0 C 4,6 C 0,3 km/h (0 Bft) 94,74 %
11.05.2017 07:00 7,2 C 14,4 C 93 % 1006,3 hPa 0,0 l/m 4,3 km/h (1 Bft) N-NO 1,00 h 0,051 mm 0,6 UV-I 257 W/m 6,2 C 7,1 C 7,3 km/h (2 Bft) 97,85 %
11.05.2017 08:00 9,0 C 14,6 C 89 % 1006,1 hPa 0,0 l/m 8,4 km/h (2 Bft) O-NO 1,00 h 0,101 mm 1,1 UV-I 450 W/m 7,3 C 7,6 C 13,1 km/h (3 Bft) 95,57 %
11.05.2017 09:00 11,3 C 15,0 C 83 % 1006,0 hPa 0,0 l/m 9,1 km/h (2 Bft) NO 1,00 h 0,204 mm 2,0 UV-I 601 W/m 8,6 C 9,6 C 14,6 km/h (3 Bft) 97,12 %
11.05.2017 10:00 13,4 C 15,0 C 77 % 1005,6 hPa 0,0 l/m 8,9 km/h (2 Bft) NO 1,00 h 0,304 mm 3,0 UV-I 716 W/m 9,4 C 12,0 C 13,8 km/h (3 Bft) 97,48 %
11.05.2017 11:00 15,6 C 15,3 C 69 % 1005,2 hPa 0,0 l/m 11,1 km/h (2 Bft) O-NO 1,00 h 0,381 mm 3,9 UV-I 784 W/m 10,0 C 13,4 C 16,9 km/h (3 Bft) 98,16 %
11.05.2017 12:00 17,7 C 15,6 C 64 % 1004,4 hPa 0,0 l/m 13,9 km/h (3 Bft) NO 1,00 h 0,458 mm 4,8 UV-I 897 W/m 10,8 C 14,8 C 19,9 km/h (4 Bft) 94,61 %
11.05.2017 13:00 19,0 C 16,1 C 56 % 1003,5 hPa 0,0 l/m 17,1 km/h (3 Bft) O-NO 1,00 h 0,558 mm 5,0 UV-I 891 W/m 9,8 C 15,5 C 23,8 km/h (4 Bft) 94,45 %
11.05.2017 14:00 20,3 C 16,5 C 46 % 1002,7 hPa 0,0 l/m 16,1 km/h (3 Bft) O-NO 1,00 h 0,610 mm 4,4 UV-I 831 W/m 8,2 C 17,3 C 22,3 km/h (4 Bft) 96,84 %
11.05.2017 15:00 20,8 C 16,7 C 43 % 1001,8 hPa 0,0 l/m 17,3 km/h (3 Bft) O-NO 0,87 h 0,584 mm 3,1 UV-I 637 W/m 7,8 C 17,8 C 24,6 km/h (4 Bft) 97,20 %
11.05.2017 16:00 20,8 C 16,9 C 45 % 1000,8 hPa 0,0 l/m 19,9 km/h (4 Bft) O-NO 0,87 h 0,534 mm 2,1 UV-I 538 W/m 8,4 C 17,3 C 28,1 km/h (4 Bft) 97,52 %
11.05.2017 17:00 19,9 C 17,2 C 51 % 1000,0 hPa 0,0 l/m 18,8 km/h (3 Bft) O-NO 0,50 h 0,457 mm 0,9 UV-I 274 W/m 9,3 C 16,4 C 26,9 km/h (4 Bft) 94,96 %
11.05.2017 18:00 19,5 C 17,2 C 57 % 999,2 hPa 0,0 l/m 18,5 km/h (3 Bft) O-NO 0,50 h 0,279 mm 0,5 UV-I 186 W/m 10,7 C 15,9 C 26,6 km/h (4 Bft) 95,60 %
11.05.2017 19:00 18,6 C 17,2 C 61 % 998,5 hPa 0,0 l/m 17,6 km/h (3 Bft) O-NO 0,27 h 0,203 mm 0,0 UV-I 72 W/m 10,9 C 14,9 C 24,9 km/h (4 Bft) 95,92 %
11.05.2017 20:00 17,6 C 16,7 C 64 % 998,3 hPa 0,0 l/m 14,6 km/h (3 Bft) O-NO 0,00 h 0,127 mm 0,0 UV-I 9 W/m 10,6 C 14,4 C 22,3 km/h (4 Bft) 97,02 %
11.05.2017 21:00 16,7 C 16,7 C 65 % 999,1 hPa 0,0 l/m 11,2 km/h (2 Bft) O-NO 0,00 h 0,077 mm 0,0 UV-I 0 W/m 10,1 C 14,6 C 16,1 km/h (3 Bft) 95,86 %
11.05.2017 22:00 15,4 C 16,7 C 72 % 998,9 hPa 0,0 l/m 3,0 km/h (1 Bft) O-NO 0,00 h 0,050 mm 0,0 UV-I 0 W/m 10,3 C 15,3 C 5,0 km/h (1 Bft) 96,67 %
11.05.2017 23:00 14,3 C 16,7 C 76 % 998,6 hPa 0,0 l/m 3,3 km/h (1 Bft) O-NO 0,00 h 0,026 mm 0,0 UV-I 0 W/m 10,1 C 14,3 C 4,9 km/h (1 Bft) 97,44 %
12.05.2017 00:00 12,6 C 16,7 C 83 % 998,8 hPa 0,0 l/m 1,0 km/h (0 Bft) O-NO 0,00 h 0,000 mm 0,0 UV-I 0 W/m 9,8 C 12,6 C 2,2 km/h (1 Bft) 98,41 %
12.05.2017 01:00 12,2 C 16,7 C 86 % 999,0 hPa 0,0 l/m 0,6 km/h (0 Bft) O-NO 0,00 h 0,000 mm 0,0 UV-I 0 W/m 9,9 C 12,2 C 1,5 km/h (1 Bft) 96,69 %
12.05.2017 02:00 11,5 C 16,7 C 88 % 999,2 hPa 0,0 l/m 2,1 km/h (1 Bft) SO 0,00 h 0,000 mm 0,0 UV-I 0 W/m 9,7 C 11,5 C 3,7 km/h (1 Bft) 95,89 %
12.05.2017 03:00 11,5 C 16,7 C 89 % 999,5 hPa 0,0 l/m 1,8 km/h (1 Bft) S-SW 0,00 h 0,000 mm 0,0 UV-I 0 W/m 9,8 C 11,5 C 3,3 km/h (1 Bft) 97,99 %
12.05.2017 04:00 11,9 C 16,6 C 89 % 999,8 hPa 0,0 l/m 3,3 km/h (1 Bft) S-SO 0,00 h 0,000 mm 0,0 UV-I 0 W/m 10,2 C 11,9 C 5,9 km/h (2 Bft) 97,34 %
12.05.2017 05:00 12,1 C 16,1 C 90 % 1000,0 hPa 0,0 l/m 2,1 km/h (1 Bft) W 0,00 h 0,000 mm 0,0 UV-I 8 W/m 10,5 C 12,1 C 3,9 km/h (1 Bft) 96,63 %
12.05.2017 06:00 12,1 C 16,1 C 91 % 1000,6 hPa 0,0 l/m 3,1 km/h (1 Bft) W 0,00 h 0,000 mm 0,0 UV-I 34 W/m 10,8 C 11,8 C 5,4 km/h (1 Bft) 94,57 %
12.05.2017 07:00 13,2 C 16,1 C 86 % 1001,6 hPa 0,6 l/m 8,2 km/h (2 Bft) W-SW 0,00 h 0,025 mm 0,0 UV-I 50 W/m 10,9 C 11,9 C 12,7 km/h (3 Bft) 96,89 %
12.05.2017 08:00 13,2 C 16,1 C 86 % 1002,5 hPa 1,0 l/m 15,8 km/h (3 Bft) SW 0,00 h 0,051 mm 0,4 UV-I 86 W/m 11,0 C 8,8 C 24,6 km/h (4 Bft) 97,08 %
12.05.2017 09:00 13,3 C 16,1 C 89 % 1003,8 hPa 0,2 l/m 17,5 km/h (3 Bft) W-SW 0,00 h 0,076 mm 0,8 UV-I 185 W/m 11,5 C 8,3 C 25,9 km/h (4 Bft) 96,32 %
12.05.2017 10:00 14,3 C 16,1 C 87 % 1004,4 hPa 0,2 l/m 17,4 km/h (3 Bft) W-SW 0,13 h 0,127 mm 1,8 UV-I 331 W/m 12,3 C 9,7 C 27,0 km/h (4 Bft) 95,05 %
12.05.2017 11:00 15,6 C 16,6 C 83 % 1004,8 hPa 0,0 l/m 16,7 km/h (3 Bft) SW 0,63 h 0,204 mm 2,8 UV-I 495 W/m 12,7 C 11,4 C 25,6 km/h (4 Bft) 98,32 %
12.05.2017 12:00 17,1 C 16,7 C 76 % 1004,7 hPa 0,0 l/m 11,6 km/h (2 Bft) W-SW 0,93 h 0,304 mm 4,0 UV-I 649 W/m 12,7 C 14,8 C 18,1 km/h (3 Bft) 97,03 %
12.05.2017 13:00 18,6 C 17,1 C 66 % 1004,3 hPa 0,0 l/m 8,8 km/h (2 Bft) W-SW 1,00 h 0,407 mm 5,3 UV-I 841 W/m 12,2 C 17,6 C 15,3 km/h (3 Bft) 97,05 %
12.05.2017 14:00 19,8 C 17,4 C 59 % 1003,9 hPa 0,0 l/m 10,5 km/h (2 Bft) W-SW 1,00 h 0,533 mm 4,7 UV-I 806 W/m 11,5 C 18,3 C 17,2 km/h (3 Bft) 94,41 %
12.05.2017 15:00 20,5 C 17,8 C 57 % 1003,5 hPa 0,0 l/m 6,9 km/h (2 Bft) W-SW 1,00 h 0,534 mm 3,7 UV-I 729 W/m 11,7 C 19,9 C 12,3 km/h (3 Bft) 96,65 %
12.05.2017 16:00 21,1 C 18,2 C 51 % 1003,0 hPa 0,0 l/m 3,9 km/h (1 Bft) NW 1,00 h 0,457 mm 2,4 UV-I 594 W/m 10,4 C 21,0 C 7,4 km/h (2 Bft) 96,77 %
12.05.2017 17:00 21,2 C 18,3 C 47 % 1002,6 hPa 0,0 l/m 3,2 km/h (1 Bft) SW 1,00 h 0,381 mm 1,3 UV-I 383 W/m 9,4 C 21,2 C 6,3 km/h (2 Bft) 96,67 %
12.05.2017 18:00 20,9 C 18,3 C 48 % 1002,5 hPa 0,0 l/m 2,1 km/h (1 Bft) W-SW 0,77 h 0,254 mm 0,6 UV-I 227 W/m 9,4 C 20,9 C 4,4 km/h (1 Bft) 98,01 %
12.05.2017 19:00 19,9 C 18,3 C 56 % 1002,8 hPa 0,0 l/m 1,5 km/h (1 Bft) N-NW 0,67 h 0,152 mm 0,0 UV-I 109 W/m 10,8 C 19,9 C 2,8 km/h (1 Bft) 94,54 %
12.05.2017 20:00 18,1 C 18,3 C 65 % 1003,4 hPa 0,0 l/m 0,9 km/h (0 Bft) N 0,37 h 0,076 mm 0,0 UV-I 18 W/m 11,3 C 18,1 C 1,8 km/h (1 Bft) 95,76 %
12.05.2017 21:00 15,9 C 18,3 C 76 % 1004,0 hPa 0,0 l/m 0,2 km/h (0 Bft) N 0,00 h 0,026 mm 0,0 UV-I 0 W/m 11,6 C 15,9 C 0,6 km/h (0 Bft) 97,07 %
12.05.2017 22:00 14,8 C 18,3 C 76 % 1004,3 hPa 0,0 l/m 3,2 km/h (1 Bft) S 0,00 h 0,000 mm 0,0 UV-I 0 W/m 10,6 C 14,8 C 5,1 km/h (1 Bft) 98,12 %
12.05.2017 23:00 14,4 C 18,3 C 77 % 1004,6 hPa 0,0 l/m 5,4 km/h (1 Bft) SW 0,00 h 0,025 mm 0,0 UV-I 0 W/m 10,4 C 14,4 C 8,1 km/h (2 Bft) 96,78 %
13.05.2017 00:00 13,3 C 18,3 C 80 % 1005,4 hPa 0,0 l/m 4,7 km/h (1 Bft) S-SW 0,00 h 0,000 mm 0,0 UV-I 0 W/m 9,8 C 13,1 C 7,9 km/h (2 Bft) 96,56 %
13.05.2017 01:00 13,9 C 17,8 C 77 % 1006,4 hPa 0,0 l/m 9,3 km/h (2 Bft) W-SW 0,00 h 0,025 mm 0,0 UV-I 0 W/m 10,0 C 12,3 C 14,2 km/h (3 Bft) 97,45 %
13.05.2017 02:00 13,8 C 17,8 C 82 % 1006,9 hPa 0,0 l/m 12,6 km/h (3 Bft) W-SW 0,00 h 0,026 mm 0,0 UV-I 0 W/m 10,8 C 10,7 C 18,5 km/h (3 Bft) 97,54 %
13.05.2017 03:00 12,8 C 17,8 C 92 % 1007,2 hPa 1,2 l/m 8,5 km/h (2 Bft) SW 0,00 h 0,025 mm 0,0 UV-I 0 W/m 11,4 C 11,5 C 13,1 km/h (3 Bft) 96,34 %
13.05.2017 04:00 12,6 C 17,8 C 92 % 1007,5 hPa 0,6 l/m 10,9 km/h (2 Bft) W-SW 0,00 h 0,000 mm 0,0 UV-I 0 W/m 11,3 C 10,2 C 16,8 km/h (3 Bft) 95,98 %
13.05.2017 05:00 12,4 C 17,8 C 92 % 1007,9 hPa 0,6 l/m 8,4 km/h (2 Bft) W-SW 0,03 h 0,026 mm 0,0 UV-I 9 W/m 11,2 C 11,2 C 13,1 km/h (3 Bft) 97,68 %
13.05.2017 06:00 12,3 C 17,8 C 93 % 1008,7 hPa 0,2 l/m 6,4 km/h (2 Bft) W-SW 0,00 h 0,000 mm 0,0 UV-I 21 W/m 11,2 C 11,9 C 10,1 km/h (2 Bft) 97,17 %
13.05.2017 07:00 12,2 C 17,8 C 95 % 1009,6 hPa 1,4 l/m 6,3 km/h (2 Bft) SW 0,00 h 0,025 mm 0,0 UV-I 30 W/m 11,4 C 11,8 C 9,5 km/h (2 Bft) 96,07 %
13.05.2017 08:00 12,8 C 17,8 C 94 % 1010,0 hPa 0,2 l/m 14,0 km/h (3 Bft) SW 0,00 h 0,025 mm 0,5 UV-I 110 W/m 11,8 C 8,9 C 20,6 km/h (4 Bft) 96,64 %
13.05.2017 09:00 13,1 C 17,8 C 93 % 1010,8 hPa 0,0 l/m 11,2 km/h (2 Bft) SW 0,00 h 0,077 mm 0,8 UV-I 144 W/m 12,0 C 10,5 C 17,4 km/h (3 Bft) 98,87 %
13.05.2017 10:00 14,6 C 17,8 C 89 % 1011,4 hPa 0,0 l/m 8,9 km/h (2 Bft) SW 0,20 h 0,076 mm 1,8 UV-I 334 W/m 12,9 C 13,3 C 14,4 km/h (3 Bft) 98,06 %
13.05.2017 11:00 16,9 C 17,8 C 80 % 1011,6 hPa 0,2 l/m 14,6 km/h (3 Bft) SW 0,93 h 0,178 mm 4,0 UV-I 756 W/m 13,4 C 13,8 C 22,6 km/h (4 Bft) 97,61 %
13.05.2017 12:00 18,5 C 18,2 C 73 % 1011,6 hPa 0,0 l/m 16,5 km/h (3 Bft) SW 0,90 h 0,457 mm 4,7 UV-I 909 W/m 13,5 C 15,0 C 25,9 km/h (4 Bft) 96,15 %
13.05.2017 13:00 18,2 C 18,3 C 75 % 1011,7 hPa 0,4 l/m 10,6 km/h (2 Bft) W-SW 0,37 h 0,508 mm 2,8 UV-I 487 W/m 13,7 C 16,5 C 17,8 km/h (3 Bft) 97,14 %
13.05.2017 14:00 19,4 C 18,8 C 66 % 1011,7 hPa 0,2 l/m 14,1 km/h (3 Bft) W-SW 0,67 h 0,305 mm 3,7 UV-I 659 W/m 12,9 C 16,9 C 22,0 km/h (4 Bft) 98,12 %
13.05.2017 15:00 20,5 C 18,9 C 60 % 1011,5 hPa 0,0 l/m 11,9 km/h (2 Bft) W-SW 0,93 h 0,431 mm 3,4 UV-I 718 W/m 12,5 C 18,7 C 19,5 km/h (3 Bft) 97,56 %
13.05.2017 16:00 21,1 C 19,1 C 57 % 1011,5 hPa 0,0 l/m 8,0 km/h (2 Bft) W-SW 0,87 h 0,458 mm 2,1 UV-I 552 W/m 12,1 C 20,4 C 14,6 km/h (3 Bft) 97,77 %
13.05.2017 17:00 18,6 C 19,4 C 64 % 1012,3 hPa 0,0 l/m 8,1 km/h (2 Bft) W 0,07 h 0,355 mm 0,9 UV-I 86 W/m 11,7 C 17,5 C 13,9 km/h (3 Bft) 96,26 %
13.05.2017 18:00 17,2 C 19,4 C 70 % 1012,5 hPa 0,0 l/m 6,0 km/h (2 Bft) SW 0,73 h 0,102 mm 0,0 UV-I 242 W/m 11,7 C 17,1 C 9,7 km/h (2 Bft) 98,20 %
13.05.2017 19:00 17,4 C 19,4 C 73 % 1012,9 hPa 0,0 l/m 3,4 km/h (1 Bft) S 0,77 h 0,152 mm 0,0 UV-I 99 W/m 12,4 C 17,4 C 6,6 km/h (2 Bft) 97,31 %
13.05.2017 20:00 16,1 C 19,1 C 79 % 1013,2 hPa 0,0 l/m 2,9 km/h (1 Bft) S-SO 0,20 h 0,076 mm 0,0 UV-I 14 W/m 12,4 C 16,1 C 5,5 km/h (1 Bft) 98,14 %
13.05.2017 21:00 14,7 C 18,9 C 82 % 1013,7 hPa 0,0 l/m 1,9 km/h (1 Bft) S 0,00 h 0,026 mm 0,0 UV-I 0 W/m 11,7 C 14,7 C 4,0 km/h (1 Bft) 94,89 %
13.05.2017 22:00 13,8 C 18,9 C 86 % 1014,2 hPa 0,0 l/m 1,5 km/h (1 Bft) S 0,00 h 0,000 mm 0,0 UV-I 0 W/m 11,5 C 13,8 C 3,0 km/h (1 Bft) 97,44 %
13.05.2017 23:00 13,1 C 18,9 C 88 % 1014,5 hPa 0,0 l/m 2,5 km/h (1 Bft) S-SW 0,00 h 0,000 mm 0,0 UV-I 0 W/m 11,2 C 13,1 C 3,8 km/h (1 Bft) 97,33 %
14.05.2017 00:00 11,8 C 18,9 C 92 % 1015,0 hPa 0,0 l/m 2,2 km/h (1 Bft) O-NO 0,00 h 0,000 mm 0,0 UV-I 0 W/m 10,4 C 11,7 C 4,0 km/h (1 Bft) 97,74 %
14.05.2017 01:00 10,7 C 18,9 C 94 % 1015,3 hPa 0,0 l/m 1,3 km/h (1 Bft) S-SO 0,00 h 0,000 mm 0,0 UV-I 0 W/m 9,8 C 10,7 C 2,9 km/h (1 Bft) 96,09 %
14.05.2017 02:00 10,6 C 18,9 C 94 % 1015,4 hPa 0,0 l/m 1,7 km/h (1 Bft) S 0,00 h 0,000 mm 0,0 UV-I 0 W/m 9,6 C 10,6 C 3,2 km/h (1 Bft) 98,10 %
14.05.2017 03:00 10,2 C 18,3 C 93 % 1015,9 hPa 0,0 l/m 2,2 km/h (1 Bft) S 0,00 h 0,000 mm 0,0 UV-I 0 W/m 9,2 C 10,2 C 4,2 km/h (1 Bft) 96,99 %
14.05.2017 04:00 10,2 C 18,3 C 93 % 1016,4 hPa 0,0 l/m 1,8 km/h (1 Bft) S 0,00 h 0,000 mm 0,0 UV-I 0 W/m 9,0 C 10,2 C 3,6 km/h (1 Bft) 96,01 %
14.05.2017 05:00 9,2 C 18,3 C 95 % 1017,1 hPa 0,0 l/m 2,8 km/h (1 Bft) S 0,27 h 0,000 mm 0,0 UV-I 18 W/m 8,4 C 9,2 C 4,5 km/h (1 Bft) 98,09 %
14.05.2017 06:00 10,6 C 18,3 C 93 % 1018,3 hPa 0,0 l/m 8,5 km/h (2 Bft) SW 0,53 h 0,000 mm 0,0 UV-I 99 W/m 9,6 C 9,1 C 13,4 km/h (3 Bft) 97,60 %
14.05.2017 07:00 13,2 C 18,3 C 88 % 1018,9 hPa 0,0 l/m 10,1 km/h (2 Bft) W-SW 0,93 h 0,051 mm 0,6 UV-I 257 W/m 11,3 C 11,1 C 15,5 km/h (3 Bft) 96,31 %
14.05.2017 08:00 15,2 C 18,3 C 83 % 1019,4 hPa 0,0 l/m 10,5 km/h (2 Bft) SW 0,70 h 0,152 mm 1,0 UV-I 309 W/m 12,4 C 13,1 C 16,7 km/h (3 Bft) 95,50 %
14.05.2017 09:00 16,2 C 18,3 C 81 % 1019,9 hPa 0,0 l/m 10,7 km/h (2 Bft) W-SW 0,47 h 0,178 mm 1,6 UV-I 338 W/m 12,9 C 14,3 C 16,9 km/h (3 Bft) 95,52 %
14.05.2017 10:00 17,4 C 18,3 C 76 % 1020,4 hPa 0,0 l/m 12,4 km/h (3 Bft) W 0,93 h 0,203 mm 3,2 UV-I 589 W/m 13,1 C 15,0 C 21,1 km/h (4 Bft) 96,59 %
14.05.2017 11:00 18,1 C 18,3 C 74 % 1020,5 hPa 0,0 l/m 13,8 km/h (3 Bft) SW 0,77 h 0,356 mm 4,4 UV-I 803 W/m 13,4 C 15,4 C 21,9 km/h (4 Bft) 94,31 %
14.05.2017 12:00 18,9 C 18,3 C 71 % 1020,7 hPa 0,0 l/m 12,0 km/h (2 Bft) W-SW 0,60 h 0,482 mm 4,5 UV-I 701 W/m 13,6 C 16,9 C 20,0 km/h (4 Bft) 97,09 %
14.05.2017 13:00 20,1 C 18,3 C 66 % 1020,5 hPa 0,0 l/m 11,8 km/h (2 Bft) SW 0,90 h 0,458 mm 5,2 UV-I 851 W/m 13,5 C 18,2 C 19,1 km/h (3 Bft) 96,87 %
14.05.2017 14:00 20,8 C 19,5 C 61 % 1020,3 hPa 0,0 l/m 9,9 km/h (2 Bft) W-SW 0,97 h 0,533 mm 4,9 UV-I 825 W/m 12,9 C 19,5 C 16,7 km/h (3 Bft) 96,77 %
14.05.2017 15:00 21,5 C 20,0 C 58 % 1019,8 hPa 0,0 l/m 6,4 km/h (2 Bft) NW 0,97 h 0,533 mm 3,7 UV-I 781 W/m 12,8 C 21,0 C 12,2 km/h (2 Bft) 95,78 %
14.05.2017 16:00 21,4 C 20,5 C 56 % 1019,6 hPa 0,0 l/m 5,7 km/h (1 Bft) W 0,67 h 0,508 mm 2,2 UV-I 476 W/m 12,2 C 21,2 C 11,0 km/h (2 Bft) 95,55 %
14.05.2017 17:00 20,8 C 20,6 C 58 % 1019,5 hPa 0,0 l/m 4,5 km/h (1 Bft) W 0,03 h 0,305 mm 1,0 UV-I 227 W/m 12,2 C 20,8 C 9,0 km/h (2 Bft) 97,35 %
14.05.2017 18:00 20,6 C 20,6 C 61 % 1019,6 hPa 0,0 l/m 3,0 km/h (1 Bft) W-NW 0,57 h 0,178 mm 0,5 UV-I 218 W/m 12,7 C 20,6 C 7,7 km/h (2 Bft) 97,52 %
14.05.2017 19:00 19,5 C 20,6 C 64 % 1020,2 hPa 0,0 l/m 4,2 km/h (1 Bft) W 0,07 h 0,152 mm 0,0 UV-I 62 W/m 12,4 C 19,5 C 7,6 km/h (2 Bft) 96,59 %
14.05.2017 20:00 18,2 C 20,6 C 70 % 1020,9 hPa 0,0 l/m 7,7 km/h (2 Bft) W-SW 0,00 h 0,051 mm 0,0 UV-I 15 W/m 12,7 C 17,6 C 12,2 km/h (2 Bft) 95,94 %
14.05.2017 21:00 17,1 C 20,3 C 70 % 1021,9 hPa 0,0 l/m 8,6 km/h (2 Bft) W-SW 0,00 h 0,051 mm 0,0 UV-I 0 W/m 11,5 C 16,1 C 13,2 km/h (3 Bft) 97,88 %
14.05.2017 22:00 16,3 C 20,0 C 76 % 1022,7 hPa 0,0 l/m 6,7 km/h (2 Bft) SW 0,00 h 0,051 mm 0,0 UV-I 0 W/m 12,1 C 16,0 C 9,7 km/h (2 Bft) 98,86 %
14.05.2017 23:00 15,5 C 20,0 C 83 % 1023,0 hPa 0,0 l/m 4,0 km/h (1 Bft) S-SW 0,00 h 0,025 mm 0,0 UV-I 0 W/m 12,6 C 15,4 C 6,5 km/h (2 Bft) 97,81 %
Min-Datum _ 10.05.17 10.05.17 11.05.17 11.05.17 - 09.05.17 - - - - - 10.05.17 09.05.17 09.05.17 08.05.17
_ Min-Zeit 05:58 03:04 15:00 20:18 - 08:40 - - - - - 05:58 05:28 08:40 00:02
Minimum _ 1,9 C 13,3 C 39 % 998,1 hPa - 0,0 km/h (0 Bft) - - - - - 1,5 C 0,7 C 0,0 km/h (0 Bft) 5,88 %
Max-Datum _ 14.05.17 14.05.17 10.05.17 14.05.17 08.05.17 11.05.17 - 10.05.17 11.05.17 12.05.17 14.05.17 13.05.17 14.05.17 08.05.17 08.05.17
_ Max-Zeit 16:18 16:12 06:32 23:54 16:19 17:32 - 20:10 14:00 13:14 12:24 13:34 16:18 12:38 01:01
Maximum _ 22,1 C 20,6 C 98 % 1023,2 hPa 7,0 l/m 25,1 km/h
O-NO (4 Bft)
- 0,07 h 0,610 mm 6,3 UV-I 1184 W/m 14,6 C 22,0 C 38,6 km/h
SW (5 Bft)
100,00 %
Durchschnitt _ 12,4 C 16,4 C 82 % 1010,4 hPa #53,6 l/m 7,3 km/h (2 Bft) W-SW #49:56 h #22,200 mm 2,3 UV-I 324 W/m 9,0 C 11,1 C 11,8 km/h (2 Bft) 96,74 %